Time;durP1;ratioP1;P1;durP2;ratioP2;P2;SDS_P1;SDS_P2;PMS_P1;PMS_P2;Temp;Humidity;BMP_temperature;BMP_pressure;BME280_temperature;BME280_humidity;BME280_pressure;Samples;Min_cycle;Max_cycle;Signal;HPM_P1;HPM_P2
2020/12/01 00:03:41;;;;;;;55.60;34.40;;;;;;;-2.07;100.00;101116.58;3660593;78;32347;-72
2020/12/01 00:08:42;;;;;;;59.90;37.27;;;;;;;-1.97;100.00;101122.05;3660608;81;27544;-80
2020/12/01 00:13:43;;;;;;;57.90;36.97;;;;;;;-1.96;100.00;101119.00;3659788;81;25687;-80
2020/12/01 00:18:44;;;;;;;62.10;36.43;;;;;;;-1.90;100.00;101112.60;3658397;81;26038;-80
2020/12/01 00:23:46;;;;;;;60.80;37.80;;;;;;;-1.85;100.00;101114.92;3658417;81;26136;-81
2020/12/01 00:28:48;;;;;;;66.67;39.07;;;;;;;-1.77;100.00;101110.75;3663493;76;25886;-79
2020/12/01 00:33:49;;;;;;;68.30;40.10;;;;;;;-1.79;100.00;101111.13;3660072;80;27598;-81
2020/12/01 00:38:50;;;;;;;59.93;37.00;;;;;;;-1.74;100.00;101124.71;3649044;81;25779;-81
2020/12/01 00:43:52;;;;;;;68.93;39.37;;;;;;;-1.94;100.00;101132.55;3643042;81;26543;-81
2020/12/01 00:48:53;;;;;;;66.57;40.78;;;;;;;-1.87;100.00;101136.20;3642966;81;26098;-81
2020/12/01 00:53:53;;;;;;;64.67;39.77;;;;;;;-1.95;100.00;101129.91;3643039;81;25766;-81
2020/12/01 00:58:55;;;;;;;63.93;40.03;;;;;;;-1.97;100.00;101128.98;3643067;81;25791;-81
2020/12/01 01:03:57;;;;;;;64.83;41.33;;;;;;;-2.09;100.00;101113.94;3643690;81;33186;-80
2020/12/01 01:08:58;;;;;;;69.20;41.15;;;;;;;-2.09;100.00;101113.94;3643549;81;25788;-81
2020/12/01 01:14:00;;;;;;;69.10;42.97;;;;;;;-2.11;100.00;101106.03;3648520;81;25580;-80
2020/12/01 01:19:01;;;;;;;66.77;43.07;;;;;;;-2.11;100.00;101109.95;3647571;80;25649;-80
2020/12/01 01:24:02;;;;;;;66.57;41.83;;;;;;;-2.18;100.00;101100.64;3644725;80;25742;-72
2020/12/01 01:29:04;;;;;;;77.37;46.07;;;;;;;-2.23;100.00;101098.36;3646456;81;25766;-81
2020/12/01 01:34:05;;;;;;;73.10;45.80;;;;;;;-2.25;100.00;101097.89;3649862;81;25792;-80
2020/12/01 01:39:07;;;;;;;76.70;45.60;;;;;;;-2.27;100.00;101093.48;3659931;81;25799;-80
2020/12/01 01:44:28;;;;;;;75.70;44.47;;;;;;;-2.27;100.00;101093.48;3658283;81;27529;-81
2020/12/01 01:49:40;;;;;;;80.33;46.83;;;;;;;-2.26;100.00;101084.80;3658401;80;27567;-80
2020/12/01 01:54:44;;;;;;;72.50;44.23;;;;;;;-2.17;100.00;101089.36;3658252;81;27929;-81
2020/12/01 01:59:47;;;;;;;76.67;45.57;;;;;;;-2.11;100.00;101078.61;3658141;81;27517;-81
2020/12/01 02:04:48;;;;;;;78.63;45.53;;;;;;;-2.06;100.00;101073.92;3658026;81;27655;-81
2020/12/01 02:09:54;;;;;;;67.97;42.30;;;;;;;-2.03;100.00;101080.11;3659202;76;25779;-81
2020/12/01 02:15:03;;;;;;;66.17;41.45;;;;;;;-2.02;100.00;101075.75;3662085;78;27499;-80
2020/12/01 02:20:15;;;;;;;74.07;45.57;;;;;;;-2.02;100.00;101078.36;3657957;80;27448;-81
2020/12/01 02:25:19;;;;;;;79.27;49.03;;;;;;;-1.99;100.00;101061.02;3658063;81;28693;-81
2020/12/01 02:30:20;;;;;;;67.47;41.13;;;;;;;-1.98;100.00;101056.70;3658353;81;27528;-80
2020/12/01 02:35:21;;;;;;;75.67;44.57;;;;;;;-1.99;100.00;101057.54;3669995;80;25750;-81
2020/12/01 02:40:22;;;;;;;76.60;44.17;;;;;;;-2.00;100.00;101059.25;3686392;80;25746;-81
2020/12/01 02:45:23;;;;;;;79.27;45.00;;;;;;;-1.96;100.00;101048.44;3686563;80;25743;-80
2020/12/01 02:50:24;;;;;;;72.63;42.23;;;;;;;-1.96;100.00;101052.36;3686743;80;25753;-81
2020/12/01 02:55:25;;;;;;;75.17;43.73;;;;;;;-1.89;100.00;101050.34;3686636;80;25979;-73
2020/12/01 03:00:26;;;;;;;71.17;41.43;;;;;;;-1.83;100.00;101041.32;3686343;80;32266;-80
2020/12/01 03:05:27;;;;;;;71.57;40.90;;;;;;;-1.84;100.00;101050.45;3686784;80;33199;-81
2020/12/01 03:10:28;;;;;;;75.07;42.77;;;;;;;-1.84;100.00;101048.73;3686664;80;33134;-73
2020/12/01 03:15:29;;;;;;;74.27;43.73;;;;;;;-1.98;100.00;101047.55;3686262;80;33215;-82
2020/12/01 03:20:30;;;;;;;69.17;41.90;;;;;;;-1.98;100.00;101056.26;3687068;80;33215;-80
2020/12/01 03:25:31;;;;;;;71.93;42.27;;;;;;;-2.00;100.00;101050.11;3686754;80;33184;-80
2020/12/01 03:30:32;;;;;;;65.80;41.37;;;;;;;-2.01;100.00;101037.89;3686595;80;25762;-82
2020/12/01 03:35:34;;;;;;;70.50;40.47;;;;;;;-1.91;100.00;101045.53;3646534;80;26301;-81
2020/12/01 03:40:35;;;;;;;68.93;39.90;;;;;;;-1.95;100.00;101044.58;3658274;81;26140;-81
2020/12/01 03:45:36;;;;;;;61.47;37.87;;;;;;;-1.92;100.00;101030.70;3658037;81;25771;-81
2020/12/01 03:50:37;;;;;;;70.03;42.27;;;;;;;-1.94;100.00;101034.55;3658208;81;25893;-81
2020/12/01 03:55:38;;;;;;;73.60;42.20;;;;;;;-1.87;100.00;101036.02;3658595;81;25779;-81
2020/12/01 04:00:39;;;;;;;65.93;38.80;;;;;;;-1.88;100.00;101036.43;3658177;81;25722;-81
2020/12/01 04:05:40;;;;;;;67.92;39.88;;;;;;;-1.99;100.00;101024.88;3657933;81;30985;-72
2020/12/01 04:10:41;;;;;;;68.57;40.17;;;;;;;-1.91;100.00;101029.84;3658027;81;30909;-81
2020/12/01 04:15:42;;;;;;;66.07;41.07;;;;;;;-1.99;100.00;101024.88;3658155;81;31455;-81
2020/12/01 04:20:43;;;;;;;72.23;42.53;;;;;;;-1.94;100.00;101027.16;3660898;78;31471;-80
2020/12/01 04:25:45;;;;;;;67.07;41.43;;;;;;;-1.93;100.00;101019.78;3658556;81;31475;-82
2020/12/01 04:30:46;;;;;;;67.83;42.23;;;;;;;-1.96;100.00;101020.59;3658180;81;31546;-81
2020/12/01 04:35:47;;;;;;;57.40;36.40;;;;;;;-1.97;100.00;101016.63;3658522;81;31466;-81
2020/12/01 04:40:47;;;;;;;64.93;39.87;;;;;;;-2.06;100.00;101019.06;3658644;81;30884;-81
2020/12/01 04:45:51;;;;;;;64.83;39.67;;;;;;;-2.06;100.00;101016.45;3658633;81;25843;-81
2020/12/01 04:51:03;;;;;;;61.73;39.13;;;;;;;-2.07;100.00;101015.98;3643914;81;31008;-81
2020/12/01 04:56:25;;;;;;;65.40;38.10;;;;;;;-2.12;100.00;101018.09;3660520;80;31441;-80
2020/12/01 05:02:10;;;;;;;56.67;37.63;;;;;;;-2.10;100.00;101004.61;3658991;80;31374;-81
2020/12/01 05:07:32;;;;;;;62.88;37.05;;;;;;;-2.18;100.00;101006.17;3659254;80;25770;-81
2020/12/01 05:12:39;;;;;;;57.80;36.83;;;;;;;-2.20;100.00;101006.98;3658494;76;30845;-81
2020/12/01 05:18:13;;;;;;;60.23;36.43;;;;;;;-2.19;100.00;101003.13;3665440;78;30937;-81
2020/12/01 05:23:17;;;;;;;56.87;35.77;;;;;;;-2.22;100.00;101009.58;3658931;80;31158;-80
2020/12/01 05:28:19;;;;;;;54.85;36.08;;;;;;;-2.25;100.00;101001.66;3691803;77;48912;-81
2020/12/01 05:33:27;;;;;;;56.00;36.57;;;;;;;-2.25;100.00;101013.00;3726805;78;25717;-82
2020/12/01 05:38:29;;;;;;;59.83;35.60;;;;;;;-2.30;100.00;101012.03;3665276;79;30916;-80
2020/12/01 05:43:38;;;;;;;54.77;36.57;;;;;;;-2.33;100.00;101017.61;3662333;79;30797;-80
2020/12/01 05:48:59;;;;;;;58.40;34.83;;;;;;;-2.32;100.00;101014.12;3670508;79;31003;-73
2020/12/01 05:54:01;;;;;;;57.80;35.73;;;;;;;-2.44;100.00;101019.53;3690357;79;30979;-80
2020/12/01 05:59:06;;;;;;;58.63;36.03;;;;;;;-2.31;100.00;101025.93;3663628;79;31431;-80
2020/12/01 06:04:24;;;;;;;53.65;35.58;;;;;;;-2.44;100.00;101020.84;3581307;79;45194;-80
2020/12/01 06:09:50;;;;;;;55.87;36.23;;;;;;;-2.42;100.00;101023.47;3520077;82;30752;-80
2020/12/01 06:14:58;;;;;;;52.83;34.73;;;;;;;-2.45;100.00;101028.64;3579544;82;30956;-80
2020/12/01 06:20:16;;;;;;;57.97;36.50;;;;;;;-2.48;100.00;101029.45;3622249;77;39406;-80
2020/12/01 06:25:42;;;;;;;54.40;35.60;;;;;;;-2.54;100.00;101037.15;3606846;80;289348;-80
2020/12/01 06:31:33;;;;;;;60.47;37.90;;;;;;;-2.53;100.00;101050.63;3563936;82;31058;-80
2020/12/01 06:37:21;;;;;;;56.70;36.57;;;;;;;-2.46;100.00;101049.94;3583785;80;30968;-80
2020/12/01 06:42:38;;;;;;;53.27;34.70;;;;;;;-2.52;100.00;101049.80;3692450;80;31027;-80
2020/12/01 06:47:40;;;;;;;60.03;37.00;;;;;;;-2.53;100.00;101061.08;3667332;80;31070;-80
2020/12/01 06:52:41;;;;;;;57.93;36.70;;;;;;;-2.55;100.00;101054.96;3692092;80;30975;-80
2020/12/01 06:57:42;;;;;;;56.47;37.57;;;;;;;-2.52;100.00;101061.98;3688852;80;25797;-79
2020/12/01 07:02:43;;;;;;;55.77;36.73;;;;;;;-2.49;100.00;101048.58;3692700;80;26163;-79
2020/12/01 07:07:45;;;;;;;55.43;37.13;;;;;;;-2.49;100.00;101055.11;3691507;79;26360;-80
2020/12/01 07:13:12;;;;;;;59.50;38.13;;;;;;;-2.48;100.00;101062.09;3693662;79;25897;-81
2020/12/01 07:18:31;;;;;;;56.47;37.80;;;;;;;-2.44;100.00;101060.00;3734618;79;30796;-79
2020/12/01 07:23:41;;;;;;;56.00;36.33;;;;;;;-2.42;100.00;101060.03;3761149;79;30979;-81
2020/12/01 07:28:53;;;;;;;56.40;35.93;;;;;;;-2.35;100.00;101068.91;3756845;78;30936;-80
2020/12/01 07:34:02;;;;;;;54.43;34.97;;;;;;;-2.38;100.00;101061.89;3759380;79;31102;-79
2020/12/01 07:39:11;;;;;;;53.73;35.00;;;;;;;-2.36;100.00;101062.78;3760455;78;30889;-81
2020/12/01 07:44:18;;;;;;;54.90;37.03;;;;;;;-2.25;100.00;101066.95;3760250;79;30868;-80
2020/12/01 07:49:25;;;;;;;52.50;34.60;;;;;;;-2.20;100.00;101070.58;3766814;77;31134;-79
2020/12/01 07:54:26;;;;;;;51.47;35.33;;;;;;;-2.26;100.00;101077.84;3763827;78;31480;-81
2020/12/01 07:59:27;;;;;;;52.13;32.97;;;;;;;-2.24;100.00;101076.56;3759026;79;31425;-80
2020/12/01 08:04:28;;;;;;;50.87;33.40;;;;;;;-2.12;100.00;101078.58;3759047;79;25813;-80
2020/12/01 08:09:31;;;;;;;51.77;31.63;;;;;;;-2.07;100.00;101090.01;3758953;79;25785;-81
2020/12/01 08:14:33;;;;;;;53.47;33.60;;;;;;;-2.09;100.00;101091.29;3758929;79;30895;-80
2020/12/01 08:19:35;;;;;;;52.83;32.80;;;;;;;-1.99;100.00;101100.66;3758917;79;31045;-80
2020/12/01 08:24:42;;;;;;;50.37;31.33;;;;;;;-1.92;100.00;101096.89;3758963;79;30868;-80
2020/12/01 08:29:45;;;;;;;49.57;33.00;;;;;;;-1.83;100.00;101105.80;3758752;78;30984;-80
2020/12/01 08:35:05;;;;;;;52.90;33.00;;;;;;;-1.80;100.00;101104.13;3758945;79;30901;-81
2020/12/01 08:40:52;;;;;;;47.43;31.47;;;;;;;-1.69;99.50;101108.73;3757416;78;31476;-80
2020/12/01 08:46:10;;;;;;;46.80;31.33;;;;;;;-1.64;98.73;101111.00;3704743;79;31001;-81
2020/12/01 08:51:33;;;;;;;41.10;29.80;;;;;;;-1.43;98.79;101110.56;3753573;79;31007;-81
2020/12/01 08:56:44;;;;;;;45.37;28.60;;;;;;;-1.38;96.81;101111.97;3753680;79;31401;-80
2020/12/01 09:01:45;;;;;;;43.60;28.37;;;;;;;-1.34;96.84;101113.38;3752786;78;31007;-80
2020/12/01 09:06:47;;;;;;;41.93;27.37;;;;;;;-1.19;96.31;101110.17;3753556;79;25716;-80
2020/12/01 09:12:05;;;;;;;43.17;27.80;;;;;;;-1.13;94.70;101113.34;3754342;79;25713;-80
2020/12/01 09:17:06;;;;;;;33.93;22.93;;;;;;;-1.05;94.67;101114.79;3751317;78;31415;-81
2020/12/01 09:22:26;;;;;;;37.87;24.17;;;;;;;-1.03;93.96;101103.93;3752866;78;31002;-80
2020/12/01 09:27:31;;;;;;;38.60;26.50;;;;;;;-0.99;93.42;101112.31;3753907;78;34830;-81
2020/12/01 09:32:33;;;;;;;38.73;26.82;;;;;;;-0.87;93.96;101108.61;3753864;79;25771;-81
2020/12/01 09:37:34;;;;;;;39.20;26.13;;;;;;;-0.76;92.65;101105.28;3759981;78;25788;-81
2020/12/01 09:42:37;;;;;;;43.93;28.60;;;;;;;-0.66;91.87;101095.45;3761103;78;25845;-81
2020/12/01 09:47:42;;;;;;;36.50;26.00;;;;;;;-0.53;91.88;101101.34;3758990;79;30940;-81
2020/12/01 09:52:56;;;;;;;37.87;26.20;;;;;;;-0.47;91.31;101103.60;3758461;78;30996;-81
2020/12/01 09:58:07;;;;;;;35.87;24.80;;;;;;;-0.41;90.63;101097.15;3756049;78;31332;-81
2020/12/01 10:08:20;;;;;;;37.60;25.07;;;;;;;-0.09;88.44;101104.21;3758835;79;31665;-81
2020/12/01 10:39:10;;;;;;;31.87;22.50;;;;;;;0.54;83.26;101092.39;3759481;79;30985;-81
2020/12/01 10:44:12;;;;;;;31.93;21.73;;;;;;;0.85;82.49;101090.14;3758803;79;36277;-80
2020/12/01 10:49:15;;;;;;;30.90;21.43;;;;;;;1.19;82.53;101085.68;3758737;79;31415;-80
2020/12/01 10:54:17;;;;;;;28.57;21.10;;;;;;;1.53;79.03;101092.55;3758835;79;31084;-81
2020/12/01 10:59:21;;;;;;;26.87;19.97;;;;;;;2.98;73.50;101091.14;3758547;79;31400;-73
2020/12/01 11:04:23;;;;;;;28.13;20.20;;;;;;;8.28;53.10;101088.95;3758944;79;30933;-80
2020/12/01 11:09:24;;;;;;;26.20;21.00;;;;;;;10.07;46.72;101092.46;3759125;79;30948;-82
2020/12/01 11:14:25;;;;;;;25.73;22.30;;;;;;;10.66;43.38;101083.73;3759151;79;29142;-81
2020/12/01 11:19:26;;;;;;;25.30;22.60;;;;;;;11.93;39.21;101081.91;3759441;79;31063;-82
2020/12/01 11:24:27;;;;;;;23.40;20.90;;;;;;;12.28;39.13;101074.47;3759408;79;31018;-81
2020/12/01 11:29:28;;;;;;;23.93;21.53;;;;;;;11.93;39.35;101073.89;3758889;79;30986;-81
2020/12/01 11:34:29;;;;;;;26.10;23.40;;;;;;;12.21;36.70;101073.42;3759038;79;31049;-80
2020/12/01 11:39:31;;;;;;;25.87;23.30;;;;;;;11.53;38.76;101074.36;3759172;78;30945;-81
2020/12/01 11:44:32;;;;;;;23.80;21.37;;;;;;;12.23;37.45;101076.44;3759052;79;30970;-82
2020/12/01 11:49:33;;;;;;;23.60;21.20;;;;;;;10.84;39.38;101078.31;3759190;79;31549;-81
2020/12/01 11:54:34;;;;;;;24.80;22.30;;;;;;;7.52;45.85;101093.41;3758823;77;31383;-81
2020/12/01 11:59:35;;;;;;;22.73;20.43;;;;;;;7.58;47.87;101077.37;3758988;79;31401;-81
2020/12/01 12:04:36;;;;;;;22.90;20.53;;;;;;;8.48;45.56;101069.11;3758958;79;31362;-81
2020/12/01 12:09:38;;;;;;;21.40;19.30;;;;;;;7.61;47.37;101077.34;3758919;79;31006;-81
2020/12/01 12:14:39;;;;;;;21.03;18.87;;;;;;;8.40;44.71;101059.48;3758850;79;30107;-79
2020/12/01 12:19:40;;;;;;;21.47;19.27;;;;;;;8.53;43.66;101067.26;3758941;79;27177;-81
2020/12/01 12:24:41;;;;;;;21.87;19.57;;;;;;;7.96;45.54;101063.91;3758951;79;26192;-81
2020/12/01 12:29:42;;;;;;;24.50;21.87;;;;;;;6.54;50.25;101065.61;3758862;79;25718;-81
2020/12/01 12:34:43;;;;;;;25.33;22.63;;;;;;;5.97;52.89;101051.69;3759376;79;25769;-82
2020/12/01 12:39:44;;;;;;;22.80;19.90;;;;;;;4.98;56.61;101063.07;3764356;78;25821;-73
2020/12/01 12:44:46;;;;;;;20.47;17.03;;;;;;;3.59;60.18;101056.48;3753391;79;25829;-72
2020/12/01 12:49:47;;;;;;;22.17;18.77;;;;;;;2.99;61.61;101059.53;3753130;79;34914;-73
2020/12/01 12:54:48;;;;;;;17.13;14.93;;;;;;;3.48;62.29;101053.86;3753099;79;34919;-71
2020/12/01 12:59:49;;;;;;;19.67;16.97;;;;;;;3.31;60.73;101056.03;3753113;79;35016;-72
2020/12/01 13:04:50;;;;;;;16.42;14.60;;;;;;;3.91;59.42;101055.13;3753384;79;34837;-80
2020/12/01 13:09:51;;;;;;;18.33;15.10;;;;;;;4.23;59.37;101052.84;3753733;79;34941;-81
2020/12/01 13:14:52;;;;;;;18.30;15.50;;;;;;;3.70;60.00;101065.71;3760053;79;34021;-80
2020/12/01 13:19:54;;;;;;;19.47;17.07;;;;;;;3.35;61.46;101071.41;3755396;79;33595;-80
2020/12/01 13:24:55;;;;;;;18.47;16.17;;;;;;;4.20;59.21;101061.20;3759229;79;32634;-78
2020/12/01 13:29:56;;;;;;;22.10;17.40;;;;;;;4.51;57.68;101068.57;3759567;79;26376;-78
2020/12/01 13:34:57;;;;;;;21.67;18.77;;;;;;;3.13;60.78;101071.84;3753871;79;28783;-80
2020/12/01 13:39:58;;;;;;;18.87;15.90;;;;;;;3.16;61.90;101083.27;3753385;79;27159;-78
2020/12/01 13:44:59;;;;;;;17.73;14.37;;;;;;;2.42;65.42;101091.36;3753768;79;26252;-80
2020/12/01 13:50:01;;;;;;;17.40;15.50;;;;;;;2.89;63.54;101095.92;3741637;79;25794;-79
2020/12/01 13:55:05;;;;;;;17.77;14.00;;;;;;;2.84;63.81;101097.67;3686373;79;25745;-78
2020/12/01 14:00:29;;;;;;;17.83;14.93;;;;;;;2.63;64.41;101103.30;3678912;80;35326;-80
2020/12/01 14:05:30;;;;;;;19.07;14.73;;;;;;;2.19;66.07;101118.00;3676973;80;34850;-77
2020/12/01 14:10:32;;;;;;;18.13;14.87;;;;;;;1.50;69.54;101122.73;3691023;79;33133;-80
2020/12/01 14:15:33;;;;;;;17.47;14.33;;;;;;;1.17;71.09;101118.92;3687477;80;34925;-80
2020/12/01 14:20:34;;;;;;;22.77;17.97;;;;;;;0.87;72.73;101125.17;3687490;79;31524;-80
2020/12/01 14:25:35;;;;;;;24.40;18.47;;;;;;;0.78;73.83;101125.92;3686149;80;30688;-81
2020/12/01 14:30:36;;;;;;;21.97;15.47;;;;;;;0.73;74.54;101126.31;3677164;80;25902;-81
2020/12/01 14:35:37;;;;;;;22.63;16.03;;;;;;;0.58;75.43;101131.36;3679074;80;25807;-79
2020/12/01 14:40:38;;;;;;;22.47;15.90;;;;;;;0.66;75.92;101140.66;3638821;80;25850;-79
2020/12/01 14:45:40;;;;;;;23.13;16.57;;;;;;;0.46;76.19;101150.02;3619694;82;25777;-78
2020/12/01 14:51:11;;;;;;;24.00;16.43;;;;;;;0.31;76.83;101147.18;3615582;81;25759;-79
2020/12/01 14:56:53;;;;;;;27.57;17.77;;;;;;;0.33;76.88;101155.96;3613661;82;35331;-73
2020/12/01 15:02:06;;;;;;;25.67;18.27;;;;;;;0.27;77.70;101163.75;3588032;81;35399;-77
2020/12/01 15:07:40;;;;;;;27.27;18.67;;;;;;;0.24;78.12;101163.69;3578978;81;34934;-80
2020/12/01 15:12:55;;;;;;;25.43;19.03;;;;;;;0.22;77.85;101161.46;3581939;81;34842;-80
2020/12/01 15:18:01;;;;;;;27.05;17.70;;;;;;;0.01;78.86;101164.21;3575488;81;25873;-79
2020/12/01 15:23:16;;;;;;;27.23;18.33;;;;;;;-0.01;78.69;101172.50;3581750;81;34899;-79
2020/12/01 15:28:41;;;;;;;25.37;17.98;;;;;;;-0.10;79.36;101174.52;3586044;81;26290;-73
2020/12/01 15:33:47;;;;;;;25.43;18.17;;;;;;;-0.13;79.70;101185.38;3587440;81;34778;-61
2020/12/01 15:38:48;;;;;;;26.20;18.85;;;;;;;-0.10;79.93;101192.00;3593793;80;25794;-79
2020/12/01 15:44:00;;;;;;;27.17;19.87;;;;;;;-0.24;80.88;101192.66;3690122;80;28460;-71
2020/12/01 15:49:02;;;;;;;29.10;20.20;;;;;;;-0.19;81.04;101209.33;3678878;80;35301;-72
2020/12/01 15:54:28;;;;;;;26.93;19.17;;;;;;;-0.14;81.30;101205.92;3685156;79;34806;-79
2020/12/01 15:59:49;;;;;;;30.10;19.97;;;;;;;-0.21;81.74;101207.10;3671632;80;34830;-79
2020/12/01 16:05:17;;;;;;;27.43;19.97;;;;;;;-0.24;81.84;101210.09;3684653;80;34905;-80
2020/12/01 16:10:50;;;;;;;30.50;20.77;;;;;;;-0.22;82.44;101209.30;3689731;80;35270;-72
2020/12/01 16:16:00;;;;;;;31.27;21.00;;;;;;;-0.32;82.49;101208.66;3519557;82;35042;-79
2020/12/01 16:21:24;;;;;;;28.03;20.10;;;;;;;-0.37;82.74;101223.43;3649968;80;34899;-80
2020/12/01 16:26:36;;;;;;;33.20;21.27;;;;;;;-0.34;82.70;101227.39;3679857;80;35456;-80
2020/12/01 16:31:37;;;;;;;32.90;22.33;;;;;;;-0.52;84.00;101228.84;3689332;80;34905;-79
2020/12/01 16:37:01;;;;;;;31.87;21.83;;;;;;;-0.57;84.17;101229.59;3676355;80;28186;-79
2020/12/01 16:42:08;;;;;;;34.60;21.93;;;;;;;-0.67;84.88;101226.78;3682125;80;25849;-82
2020/12/01 16:47:40;;;;;;;34.53;22.27;;;;;;;-0.68;85.17;101226.77;3698093;79;35410;-81
2020/12/01 16:53:07;;;;;;;33.30;23.03;;;;;;;-0.62;85.13;101234.73;3703258;80;34973;-80
2020/12/01 16:58:37;;;;;;;36.73;24.77;;;;;;;-0.55;85.14;101243.61;3699145;79;34901;-80
2020/12/01 17:04:14;;;;;;;39.30;26.00;;;;;;;-0.50;85.44;101258.57;3690657;80;34779;-78
2020/12/01 17:09:17;;;;;;;42.93;28.30;;;;;;;-0.54;86.08;101260.66;3706149;80;35138;-80
2020/12/01 17:14:22;;;;;;;42.53;28.60;;;;;;;-0.68;86.99;101263.42;3700816;80;34871;-80
2020/12/01 17:19:25;;;;;;;42.00;28.02;;;;;;;-0.71;86.53;101268.18;3711921;78;25924;-79
2020/12/01 17:24:27;;;;;;;40.13;27.47;;;;;;;-0.65;86.62;101271.36;3699714;80;35312;-79
2020/12/01 17:29:32;;;;;;;41.80;28.63;;;;;;;-0.71;86.67;101276.48;3702626;80;35426;-82
2020/12/01 17:35:00;;;;;;;43.98;29.30;;;;;;;-0.71;87.37;101279.96;3703068;80;26530;-81
2020/12/01 17:40:29;;;;;;;42.67;29.27;;;;;;;-0.68;87.15;101294.45;3664488;80;34865;-80
2020/12/01 17:45:50;;;;;;;39.90;27.50;;;;;;;-0.66;87.50;101297.09;3579515;81;34862;-81
2020/12/01 17:50:56;;;;;;;39.87;28.43;;;;;;;-0.73;87.47;101297.37;3613999;81;34920;-79
2020/12/01 17:56:00;;;;;;;44.20;29.17;;;;;;;-0.68;87.93;101313.19;3620136;80;35475;-79
2020/12/01 18:01:03;;;;;;;42.10;28.53;;;;;;;-0.63;87.60;101319.39;3676973;79;35300;-80
2020/12/01 18:06:06;;;;;;;46.00;29.63;;;;;;;-0.60;87.99;101323.84;3669477;79;34924;-80
2020/12/01 18:11:32;;;;;;;50.27;31.90;;;;;;;-0.58;88.42;101326.94;3705663;79;34896;-79
2020/12/01 18:17:08;;;;;;;50.43;32.73;;;;;;;-0.56;88.69;101329.14;3702915;79;34878;-80
2020/12/01 18:22:36;;;;;;;44.47;30.20;;;;;;;-0.52;88.27;101336.23;3678128;79;35377;-78
2020/12/01 18:27:41;;;;;;;45.23;28.97;;;;;;;-0.51;88.46;101338.00;3662927;79;34932;-78
2020/12/01 18:33:19;;;;;;;40.38;28.73;;;;;;;-0.49;87.53;101340.20;3685998;79;25964;-80
2020/12/01 18:38:29;;;;;;;43.50;28.83;;;;;;;-0.49;87.65;101333.66;3671969;79;35375;-79
2020/12/01 18:44:14;;;;;;;44.77;27.83;;;;;;;-0.49;87.78;101331.48;3686908;78;34802;-80
2020/12/01 18:49:16;;;;;;;48.50;29.20;;;;;;;-0.49;87.57;101336.27;3684113;78;25835;-80
2020/12/01 18:54:21;;;;;;;43.10;28.63;;;;;;;-0.47;88.02;101332.81;3707910;79;35222;-80
2020/12/01 18:59:20;;;;;;;48.40;29.90;;;;;;;-0.49;88.03;101326.23;3697203;78;34912;-79
2020/12/01 19:04:21;;;;;;;43.77;29.30;;;;;;;-0.57;87.61;101335.26;3712778;78;34885;-79
2020/12/01 19:09:22;;;;;;;41.57;29.03;;;;;;;-0.55;88.25;101345.77;3732217;78;27174;-79
2020/12/01 19:14:23;;;;;;;39.20;26.27;;;;;;;-0.55;87.75;101348.38;3687579;78;25811;-72
2020/12/01 19:19:25;;;;;;;39.40;26.50;;;;;;;-0.68;86.50;101353.77;3710456;78;25822;-79
2020/12/01 19:24:31;;;;;;;36.20;23.13;;;;;;;-0.64;86.50;101354.31;3702601;78;28234;-82
2020/12/01 19:29:31;;;;;;;38.83;25.48;;;;;;;-0.64;85.57;101358.24;3743343;78;25823;-80
2020/12/01 19:34:33;;;;;;;42.63;25.33;;;;;;;-0.64;85.93;101360.86;3758708;79;26664;-79
2020/12/01 19:39:34;;;;;;;36.87;23.70;;;;;;;-0.56;85.06;101357.95;3757933;79;26638;-79
2020/12/01 19:44:35;;;;;;;36.50;24.40;;;;;;;-0.53;84.42;101361.96;3706675;78;25746;-80
2020/12/01 19:49:37;;;;;;;34.10;23.63;;;;;;;-0.51;84.16;101364.61;3679803;79;25853;-79
2020/12/01 19:54:38;;;;;;;35.93;24.07;;;;;;;-0.52;84.28;101375.93;3707150;78;28158;-80
2020/12/01 19:59:39;;;;;;;42.20;24.83;;;;;;;-0.49;83.71;101378.19;3661592;79;27311;-79
2020/12/01 20:04:40;;;;;;;32.80;23.00;;;;;;;-0.45;82.58;101379.14;3679830;79;25788;-79
2020/12/01 20:09:41;;;;;;;33.97;23.03;;;;;;;-0.50;82.62;101375.14;3751578;78;25840;-79
2020/12/01 20:14:45;;;;;;;35.00;22.90;;;;;;;-0.51;82.73;101376.39;3712233;78;25771;-79
2020/12/01 20:19:47;;;;;;;35.63;23.07;;;;;;;-0.43;82.79;101390.98;3743620;79;34967;-78
2020/12/01 20:24:48;;;;;;;33.30;22.63;;;;;;;-0.40;82.69;101380.55;3685308;78;26288;-78
2020/12/01 20:29:49;;;;;;;31.30;21.67;;;;;;;-0.47;81.77;101393.96;3705814;79;26448;-79
2020/12/01 20:34:51;;;;;;;31.25;20.17;;;;;;;-0.51;81.99;101396.94;3693477;78;27183;-79
2020/12/01 20:40:29;;;;;;;34.00;22.80;;;;;;;-0.52;81.57;101403.02;3661867;79;59471;-81
2020/12/01 20:45:30;;;;;;;32.03;22.80;;;;;;;-0.48;81.60;101403.98;3684401;79;34855;-80
2020/12/01 20:50:31;;;;;;;34.83;22.97;;;;;;;-0.54;81.31;101413.89;3702958;79;28169;-80
2020/12/01 20:55:33;;;;;;;36.03;23.87;;;;;;;-0.50;81.34;101419.67;3711846;79;25670;-79
2020/12/01 21:00:41;;;;;;;35.58;22.93;;;;;;;-0.49;81.79;101417.48;3705569;78;27008;-80
2020/12/01 21:05:42;;;;;;;36.20;22.93;;;;;;;-0.61;81.42;101412.42;3701765;79;35261;-79
2020/12/01 21:10:44;;;;;;;32.60;22.83;;;;;;;-0.74;82.37;101420.41;3694687;79;26324;-80
2020/12/01 21:15:46;;;;;;;35.47;23.73;;;;;;;-0.74;83.43;101426.52;3688105;79;26302;-77
2020/12/01 21:20:47;;;;;;;40.93;25.50;;;;;;;-0.78;83.59;101425.13;3640204;80;35292;-78
2020/12/01 21:25:50;;;;;;;39.07;24.53;;;;;;;-0.85;83.92;101426.71;3687785;80;28128;-78
2020/12/01 21:31:09;;;;;;;36.27;23.93;;;;;;;-0.94;84.05;101431.31;3690909;80;35120;-78
2020/12/01 21:36:15;;;;;;;37.67;25.20;;;;;;;-0.96;84.37;101434.30;3694316;79;34761;-78
2020/12/01 21:41:40;;;;;;;40.87;24.47;;;;;;;-1.02;84.56;101441.58;3686639;80;35352;-79
2020/12/01 21:46:52;;;;;;;29.70;20.43;;;;;;;-1.09;85.28;101430.94;3664177;80;25909;-79
2020/12/01 21:52:15;;;;;;;39.07;25.53;;;;;;;-1.10;86.11;101451.41;3665587;81;34873;-78
2020/12/01 21:57:38;;;;;;;41.60;26.03;;;;;;;-1.16;85.65;101453.03;3665401;80;35020;-78
2020/12/01 22:03:06;;;;;;;42.83;26.43;;;;;;;-1.26;86.17;101452.32;3673763;80;34859;-78
2020/12/01 22:08:47;;;;;;;41.53;26.47;;;;;;;-1.40;86.84;101454.59;3673396;80;34928;-78
2020/12/01 22:14:09;;;;;;;43.13;29.13;;;;;;;-1.40;87.53;101456.31;3666235;80;35287;-79
2020/12/01 22:19:15;;;;;;;43.97;28.53;;;;;;;-1.43;87.80;101461.48;3668376;80;35288;-79
2020/12/01 22:24:30;;;;;;;43.30;26.93;;;;;;;-1.51;88.38;101450.39;3667833;80;34895;-79
2020/12/01 22:30:10;;;;;;;45.05;28.40;;;;;;;-1.59;89.14;101468.03;3622603;81;25882;-78
2020/12/01 22:35:19;;;;;;;40.93;28.83;;;;;;;-1.70;89.68;101458.59;3665790;80;34797;-79
2020/12/01 22:40:20;;;;;;;45.47;28.57;;;;;;;-1.74;89.70;101461.95;3664697;80;34965;-78
2020/12/01 22:45:56;;;;;;;43.87;28.27;;;;;;;-1.84;90.03;101451.66;3672469;80;25711;-79
2020/12/01 22:51:06;;;;;;;49.53;29.93;;;;;;;-1.80;90.28;101462.25;3620793;80;34842;-78
2020/12/01 22:56:32;;;;;;;48.20;29.30;;;;;;;-1.84;90.92;101464.33;3672360;80;35283;-78
2020/12/01 23:01:33;;;;;;;45.40;29.27;;;;;;;-1.80;90.53;101458.77;3642216;80;35250;-79
2020/12/01 23:06:39;;;;;;;48.87;29.03;;;;;;;-2.03;91.17;101456.38;3672482;80;34946;-80
2020/12/01 23:11:53;;;;;;;45.63;28.10;;;;;;;-1.96;91.11;101458.73;3672706;80;26571;-79
2020/12/01 23:16:58;;;;;;;52.53;31.93;;;;;;;-1.94;90.99;101460.54;3644502;80;26789;-78
2020/12/01 23:22:11;;;;;;;53.78;32.23;;;;;;;-2.04;91.60;101468.10;3671544;80;26054;-79
2020/12/01 23:27:20;;;;;;;51.07;29.03;;;;;;;-2.04;92.15;101472.02;3672658;80;35481;-72
2020/12/01 23:32:22;;;;;;;47.90;30.00;;;;;;;-2.16;92.81;101479.95;3674968;80;35349;-78
2020/12/01 23:37:24;;;;;;;51.20;31.77;;;;;;;-2.27;92.15;101474.41;3677343;80;34878;-77
2020/12/01 23:42:30;;;;;;;51.10;30.90;;;;;;;-2.30;92.99;101490.40;3678015;80;26085;-77
2020/12/01 23:47:45;;;;;;;50.73;31.43;;;;;;;-2.32;93.14;101489.46;3673697;80;34799;-78